sensor_id;sensor_type;location;lat;lon;timestamp;pressure;altitude;pressure_sealevel;temperature
11926;BMP180;6022;48.768;18.608;2023-05-14T00:00:44;98814.16;;;12.57
11926;BMP180;6022;48.768;18.608;2023-05-14T00:03:14;98808.34;;;12.55
11926;BMP180;6022;48.768;18.608;2023-05-14T00:05:42;98799.59;;;12.46
11926;BMP180;6022;48.768;18.608;2023-05-14T00:08:10;98798.63;;;12.35
11926;BMP180;6022;48.768;18.608;2023-05-14T00:10:39;98800.88;;;12.27
11926;BMP180;6022;48.768;18.608;2023-05-14T00:13:06;98808.00;;;12.22
11926;BMP180;6022;48.768;18.608;2023-05-14T00:15:35;98797.38;;;12.16
11926;BMP180;6022;48.768;18.608;2023-05-14T00:18:03;98797.47;;;12.14
11926;BMP180;6022;48.768;18.608;2023-05-14T00:20:31;98795.53;;;12.06
11926;BMP180;6022;48.768;18.608;2023-05-14T00:23:00;98793.50;;;11.84
11926;BMP180;6022;48.768;18.608;2023-05-14T00:25:28;98794.69;;;11.79
11926;BMP180;6022;48.768;18.608;2023-05-14T00:27:57;98800.72;;;11.78
11926;BMP180;6022;48.768;18.608;2023-05-14T00:30:25;98796.00;;;11.72
11926;BMP180;6022;48.768;18.608;2023-05-14T00:32:54;98794.19;;;11.74
11926;BMP180;6022;48.768;18.608;2023-05-14T00:35:22;98800.38;;;11.70
11926;BMP180;6022;48.768;18.608;2023-05-14T00:37:51;98793.13;;;11.64
11926;BMP180;6022;48.768;18.608;2023-05-14T00:40:23;98799.03;;;11.65
11926;BMP180;6022;48.768;18.608;2023-05-14T00:42:53;98797.19;;;11.67
11926;BMP180;6022;48.768;18.608;2023-05-14T00:45:21;98793.47;;;11.58
11926;BMP180;6022;48.768;18.608;2023-05-14T00:47:50;98790.22;;;11.56
11926;BMP180;6022;48.768;18.608;2023-05-14T00:50:18;98787.16;;;11.51
11926;BMP180;6022;48.768;18.608;2023-05-14T00:52:48;98786.97;;;11.54
11926;BMP180;6022;48.768;18.608;2023-05-14T00:55:20;98787.69;;;11.42
11926;BMP180;6022;48.768;18.608;2023-05-14T00:57:49;98791.78;;;11.31
11926;BMP180;6022;48.768;18.608;2023-05-14T01:00:18;98780.28;;;11.26
11926;BMP180;6022;48.768;18.608;2023-05-14T01:02:46;98786.97;;;11.27
11926;BMP180;6022;48.768;18.608;2023-05-14T01:05:15;98800.59;;;11.26
11926;BMP180;6022;48.768;18.608;2023-05-14T01:08:08;98787.16;;;11.24
11926;BMP180;6022;48.768;18.608;2023-05-14T01:11:06;98790.69;;;11.07
11926;BMP180;6022;48.768;18.608;2023-05-14T01:16:37;98786.63;;;11.05
11926;BMP180;6022;48.768;18.608;2023-05-14T01:19:28;98784.09;;;11.05
11926;BMP180;6022;48.768;18.608;2023-05-14T01:22:00;98788.97;;;10.94
11926;BMP180;6022;48.768;18.608;2023-05-14T01:24:29;98788.09;;;10.95
11926;BMP180;6022;48.768;18.608;2023-05-14T01:27:06;98781.66;;;10.90
11926;BMP180;6022;48.768;18.608;2023-05-14T01:29:39;98776.84;;;10.99
11926;BMP180;6022;48.768;18.608;2023-05-14T01:32:12;98777.47;;;10.89
11926;BMP180;6022;48.768;18.608;2023-05-14T01:34:44;98776.38;;;10.93
11926;BMP180;6022;48.768;18.608;2023-05-14T01:37:15;98774.09;;;11.02
11926;BMP180;6022;48.768;18.608;2023-05-14T01:39:44;98773.22;;;11.03
11926;BMP180;6022;48.768;18.608;2023-05-14T01:42:13;98776.66;;;11.02
11926;BMP180;6022;48.768;18.608;2023-05-14T01:44:42;98773.22;;;11.03
11926;BMP180;6022;48.768;18.608;2023-05-14T01:47:11;98774.31;;;10.99
11926;BMP180;6022;48.768;18.608;2023-05-14T01:49:39;98771.03;;;10.83
11926;BMP180;6022;48.768;18.608;2023-05-14T01:52:07;98763.41;;;10.83
11926;BMP180;6022;48.768;18.608;2023-05-14T01:54:36;98770.50;;;10.78
11926;BMP180;6022;48.768;18.608;2023-05-14T01:57:06;98772.03;;;10.81
11926;BMP180;6022;48.768;18.608;2023-05-14T01:59:34;98770.59;;;10.77
11926;BMP180;6022;48.768;18.608;2023-05-14T02:02:04;98770.59;;;10.77
11926;BMP180;6022;48.768;18.608;2023-05-14T02:04:34;98765.59;;;10.75
11926;BMP180;6022;48.768;18.608;2023-05-14T02:07:03;98758.91;;;10.74
11926;BMP180;6022;48.768;18.608;2023-05-14T02:09:31;98754.06;;;10.70
11926;BMP180;6022;48.768;18.608;2023-05-14T02:11:59;98761.44;;;10.74
11926;BMP180;6022;48.768;18.608;2023-05-14T02:14:28;98750.28;;;10.77
11926;BMP180;6022;48.768;18.608;2023-05-14T02:16:56;98758.16;;;10.72
11926;BMP180;6022;48.768;18.608;2023-05-14T02:19:24;98754.88;;;10.70
11926;BMP180;6022;48.768;18.608;2023-05-14T02:21:53;98749.00;;;10.70
11926;BMP180;6022;48.768;18.608;2023-05-14T02:24:21;98748.34;;;10.66
11926;BMP180;6022;48.768;18.608;2023-05-14T02:26:55;98739.38;;;10.61
11926;BMP180;6022;48.768;18.608;2023-05-14T02:29:26;98740.03;;;10.64
11926;BMP180;6022;48.768;18.608;2023-05-14T02:31:55;98745.00;;;10.52
11926;BMP180;6022;48.768;18.608;2023-05-14T02:34:24;98734.47;;;10.44
11926;BMP180;6022;48.768;18.608;2023-05-14T02:36:52;98746.69;;;10.38
11926;BMP180;6022;48.768;18.608;2023-05-14T02:39:23;98743.78;;;10.30
11926;BMP180;6022;48.768;18.608;2023-05-14T02:41:52;98746.75;;;10.22
11926;BMP180;6022;48.768;18.608;2023-05-14T02:44:20;98747.19;;;10.15
11926;BMP180;6022;48.768;18.608;2023-05-14T02:46:48;98750.44;;;10.03
11926;BMP180;6022;48.768;18.608;2023-05-14T02:49:17;98747.78;;;10.05
11926;BMP180;6022;48.768;18.608;2023-05-14T02:51:46;98745.91;;;10.08
11926;BMP180;6022;48.768;18.608;2023-05-14T02:54:17;98748.78;;;10.02
11926;BMP180;6022;48.768;18.608;2023-05-14T02:56:49;98742.06;;;9.86
11926;BMP180;6022;48.768;18.608;2023-05-14T02:59:20;98745.22;;;9.91
11926;BMP180;6022;48.768;18.608;2023-05-14T03:01:48;98741.53;;;9.81
11926;BMP180;6022;48.768;18.608;2023-05-14T03:04:17;98741.59;;;9.79
11926;BMP180;6022;48.768;18.608;2023-05-14T03:06:48;98746.69;;;9.79
11926;BMP180;6022;48.768;18.608;2023-05-14T03:09:20;98741.75;;;9.77
11926;BMP180;6022;48.768;18.608;2023-05-14T03:11:50;98732.16;;;9.68
11926;BMP180;6022;48.768;18.608;2023-05-14T03:14:18;98725.06;;;9.59
11926;BMP180;6022;48.768;18.608;2023-05-14T03:16:47;98734.94;;;9.48
11926;BMP180;6022;48.768;18.608;2023-05-14T03:19:18;98730.13;;;9.59
11926;BMP180;6022;48.768;18.608;2023-05-14T03:21:46;98725.22;;;9.56
11926;BMP180;6022;48.768;18.608;2023-05-14T03:24:17;98732.22;;;9.66
11926;BMP180;6022;48.768;18.608;2023-05-14T03:26:46;98727.63;;;9.73
11926;BMP180;6022;48.768;18.608;2023-05-14T03:29:16;98730.66;;;9.64
11926;BMP180;6022;48.768;18.608;2023-05-14T03:31:47;98725.28;;;9.70
11926;BMP180;6022;48.768;18.608;2023-05-14T03:34:27;98726.56;;;9.77
11926;BMP180;6022;48.768;18.608;2023-05-14T03:37:00;98736.19;;;9.85
11926;BMP180;6022;48.768;18.608;2023-05-14T03:39:30;98733.19;;;9.79
11926;BMP180;6022;48.768;18.608;2023-05-14T03:42:04;98736.34;;;9.82
11926;BMP180;6022;48.768;18.608;2023-05-14T03:44:35;98748.56;;;9.91
11926;BMP180;6022;48.768;18.608;2023-05-14T03:47:04;98741.25;;;9.85
11926;BMP180;6022;48.768;18.608;2023-05-14T03:49:32;98743.66;;;9.88
11926;BMP180;6022;48.768;18.608;2023-05-14T03:52:01;98740.44;;;10.00
11926;BMP180;6022;48.768;18.608;2023-05-14T03:54:30;98736.38;;;9.98
11926;BMP180;6022;48.768;18.608;2023-05-14T03:56:58;98740.03;;;10.08
11926;BMP180;6022;48.768;18.608;2023-05-14T03:59:26;98731.75;;;10.04
11926;BMP180;6022;48.768;18.608;2023-05-14T04:01:54;98746.53;;;10.12
11926;BMP180;6022;48.768;18.608;2023-05-14T04:04:22;98738.28;;;10.08
11926;BMP180;6022;48.768;18.608;2023-05-14T04:06:54;98740.09;;;10.06
11926;BMP180;6022;48.768;18.608;2023-05-14T04:09:23;98733.94;;;10.10
11926;BMP180;6022;48.768;18.608;2023-05-14T04:11:53;98740.75;;;10.10
11926;BMP180;6022;48.768;18.608;2023-05-14T04:14:21;98744.66;;;10.15
11926;BMP180;6022;48.768;18.608;2023-05-14T04:16:49;98745.06;;;10.37
11926;BMP180;6022;48.768;18.608;2023-05-14T04:19:19;98737.19;;;10.41
11926;BMP180;6022;48.768;18.608;2023-05-14T04:21:46;98736.50;;;10.67
11926;BMP180;6022;48.768;18.608;2023-05-14T04:24:15;98734.75;;;10.54
11926;BMP180;6022;48.768;18.608;2023-05-14T04:26:45;98735.16;;;10.61
11926;BMP180;6022;48.768;18.608;2023-05-14T04:29:16;98733.78;;;10.70
11926;BMP180;6022;48.768;18.608;2023-05-14T04:31:44;98733.25;;;10.65
11926;BMP180;6022;48.768;18.608;2023-05-14T04:34:12;98750.91;;;10.80
11926;BMP180;6022;48.768;18.608;2023-05-14T04:36:42;98746.94;;;10.90
11926;BMP180;6022;48.768;18.608;2023-05-14T04:39:11;98742.56;;;11.06
11926;BMP180;6022;48.768;18.608;2023-05-14T04:41:39;98731.63;;;11.45
11926;BMP180;6022;48.768;18.608;2023-05-14T04:44:08;98734.16;;;11.71
11926;BMP180;6022;48.768;18.608;2023-05-14T04:46:36;98728.53;;;12.31
11926;BMP180;6022;48.768;18.608;2023-05-14T04:49:05;98719.69;;;12.49
11926;BMP180;6022;48.768;18.608;2023-05-14T04:51:34;98722.34;;;12.97
11926;BMP180;6022;48.768;18.608;2023-05-14T04:54:02;98706.47;;;14.33
11926;BMP180;6022;48.768;18.608;2023-05-14T04:56:31;98717.22;;;15.24
11926;BMP180;6022;48.768;18.608;2023-05-14T04:58:59;98702.19;;;15.42
11926;BMP180;6022;48.768;18.608;2023-05-14T05:01:27;98697.13;;;16.24
11926;BMP180;6022;48.768;18.608;2023-05-14T05:03:55;98691.38;;;17.11
11926;BMP180;6022;48.768;18.608;2023-05-14T05:06:24;98693.25;;;16.79
11926;BMP180;6022;48.768;18.608;2023-05-14T05:08:53;98693.59;;;16.65
11926;BMP180;6022;48.768;18.608;2023-05-14T05:11:21;98685.78;;;15.86
11926;BMP180;6022;48.768;18.608;2023-05-14T05:13:50;98685.63;;;14.82
11926;BMP180;6022;48.768;18.608;2023-05-14T05:16:18;98683.72;;;14.19
11926;BMP180;6022;48.768;18.608;2023-05-14T05:18:46;98690.97;;;13.32
11926;BMP180;6022;48.768;18.608;2023-05-14T05:21:15;98677.81;;;13.02
11926;BMP180;6022;48.768;18.608;2023-05-14T05:23:43;98686.41;;;12.77
11926;BMP180;6022;48.768;18.608;2023-05-14T05:26:11;98684.38;;;12.57
11926;BMP180;6022;48.768;18.608;2023-05-14T05:28:40;98683.66;;;12.30
11926;BMP180;6022;48.768;18.608;2023-05-14T05:31:28;98680.19;;;12.31
11926;BMP180;6022;48.768;18.608;2023-05-14T05:33:59;98662.91;;;12.11
11926;BMP180;6022;48.768;18.608;2023-05-14T05:36:28;98671.22;;;11.89
11926;BMP180;6022;48.768;18.608;2023-05-14T05:38:57;98675.19;;;11.93
11926;BMP180;6022;48.768;18.608;2023-05-14T05:41:28;98684.41;;;11.94
11926;BMP180;6022;48.768;18.608;2023-05-14T05:43:56;98684.31;;;11.83
11926;BMP180;6022;48.768;18.608;2023-05-14T05:46:24;98686.03;;;11.82
11926;BMP180;6022;48.768;18.608;2023-05-14T05:48:53;98697.13;;;11.81
11926;BMP180;6022;48.768;18.608;2023-05-14T05:51:21;98701.09;;;11.85
11926;BMP180;6022;48.768;18.608;2023-05-14T05:53:50;98696.50;;;11.90
11926;BMP180;6022;48.768;18.608;2023-05-14T05:56:17;98693.88;;;11.92
11926;BMP180;6022;48.768;18.608;2023-05-14T05:58:48;98705.28;;;11.99
11926;BMP180;6022;48.768;18.608;2023-05-14T06:01:17;98701.31;;;11.95
11926;BMP180;6022;48.768;18.608;2023-05-14T06:03:45;98695.22;;;11.97
11926;BMP180;6022;48.768;18.608;2023-05-14T06:06:14;98697.25;;;12.05
11926;BMP180;6022;48.768;18.608;2023-05-14T06:08:43;98707.44;;;12.05
11926;BMP180;6022;48.768;18.608;2023-05-14T06:11:12;98701.31;;;12.07
11926;BMP180;6022;48.768;18.608;2023-05-14T06:13:40;98701.75;;;12.13
11926;BMP180;6022;48.768;18.608;2023-05-14T06:16:08;98699.75;;;12.18
11926;BMP180;6022;48.768;18.608;2023-05-14T06:18:36;98697.38;;;12.15
11926;BMP180;6022;48.768;18.608;2023-05-14T06:21:05;98696.47;;;12.16
11926;BMP180;6022;48.768;18.608;2023-05-14T06:23:34;98682.03;;;12.17
11926;BMP180;6022;48.768;18.608;2023-05-14T06:26:02;98696.06;;;12.10
11926;BMP180;6022;48.768;18.608;2023-05-14T06:28:31;98695.03;;;12.12
11926;BMP180;6022;48.768;18.608;2023-05-14T06:30:59;98692.31;;;12.15
11926;BMP180;6022;48.768;18.608;2023-05-14T06:33:28;98679.50;;;12.17
11926;BMP180;6022;48.768;18.608;2023-05-14T06:36:05;98676.94;;;12.29
11926;BMP180;6022;48.768;18.608;2023-05-14T06:38:34;98679.38;;;12.31
11926;BMP180;6022;48.768;18.608;2023-05-14T06:41:02;98684.25;;;12.21
11926;BMP180;6022;48.768;18.608;2023-05-14T06:43:30;98674.91;;;12.22
11926;BMP180;6022;48.768;18.608;2023-05-14T06:45:58;98677.88;;;12.28
11926;BMP180;6022;48.768;18.608;2023-05-14T06:48:27;98678.06;;;12.25
11926;BMP180;6022;48.768;18.608;2023-05-14T06:50:55;98667.97;;;12.24
11926;BMP180;6022;48.768;18.608;2023-05-14T06:53:24;98664.44;;;12.26
11926;BMP180;6022;48.768;18.608;2023-05-14T06:55:52;98663.41;;;12.29
11926;BMP180;6022;48.768;18.608;2023-05-14T06:58:20;98662.69;;;12.27
11926;BMP180;6022;48.768;18.608;2023-05-14T07:00:47;98658.84;;;12.21
11926;BMP180;6022;48.768;18.608;2023-05-14T07:03:15;98655.16;;;12.25
11926;BMP180;6022;48.768;18.608;2023-05-14T07:05:43;98648.25;;;12.27
11926;BMP180;6022;48.768;18.608;2023-05-14T07:08:16;98647.34;;;12.28
11926;BMP180;6022;48.768;18.608;2023-05-14T07:10:46;98641.31;;;12.29
11926;BMP180;6022;48.768;18.608;2023-05-14T07:13:15;98649.88;;;12.28
11926;BMP180;6022;48.768;18.608;2023-05-14T07:15:45;98654.97;;;12.28
11926;BMP180;6022;48.768;18.608;2023-05-14T07:18:21;98661.91;;;12.26
11926;BMP180;6022;48.768;18.608;2023-05-14T07:20:50;98661.81;;;12.28
11926;BMP180;6022;48.768;18.608;2023-05-14T07:23:18;98654.97;;;12.16
11926;BMP180;6022;48.768;18.608;2023-05-14T07:25:47;98652.13;;;12.20
11926;BMP180;6022;48.768;18.608;2023-05-14T07:28:17;98647.94;;;12.19
11926;BMP180;6022;48.768;18.608;2023-05-14T07:30:45;98646.81;;;12.23
11926;BMP180;6022;48.768;18.608;2023-05-14T07:33:14;98641.44;;;12.28
11926;BMP180;6022;48.768;18.608;2023-05-14T07:35:42;98643.16;;;12.27
11926;BMP180;6022;48.768;18.608;2023-05-14T07:38:21;98638.38;;;12.23
11926;BMP180;6022;48.768;18.608;2023-05-14T07:40:49;98634.81;;;12.25
11926;BMP180;6022;48.768;18.608;2023-05-14T07:43:16;98631.16;;;12.29
11926;BMP180;6022;48.768;18.608;2023-05-14T07:45:45;98632.09;;;12.28
11926;BMP180;6022;48.768;18.608;2023-05-14T07:48:15;98626.06;;;12.29
11926;BMP180;6022;48.768;18.608;2023-05-14T07:50:43;98630.53;;;12.26
11926;BMP180;6022;48.768;18.608;2023-05-14T07:53:12;98619.78;;;12.22
11926;BMP180;6022;48.768;18.608;2023-05-14T07:55:40;98627.50;;;12.21
11926;BMP180;6022;48.768;18.608;2023-05-14T07:58:09;98626.28;;;12.26
11926;BMP180;6022;48.768;18.608;2023-05-14T08:00:38;98612.63;;;12.27
11926;BMP180;6022;48.768;18.608;2023-05-14T08:03:06;98610.81;;;12.29
11926;BMP180;6022;48.768;18.608;2023-05-14T08:05:34;98608.97;;;12.31
11926;BMP180;6022;48.768;18.608;2023-05-14T08:08:05;98608.97;;;12.31
11926;BMP180;6022;48.768;18.608;2023-05-14T08:10:40;98606.31;;;12.33
11926;BMP180;6022;48.768;18.608;2023-05-14T08:13:13;98602.47;;;12.40
11926;BMP180;6022;48.768;18.608;2023-05-14T08:15:46;98596.16;;;12.45
11926;BMP180;6022;48.768;18.608;2023-05-14T08:18:20;98601.94;;;12.47
11926;BMP180;6022;48.768;18.608;2023-05-14T08:20:51;98596.22;;;12.56
11926;BMP180;6022;48.768;18.608;2023-05-14T08:23:23;98593.97;;;12.64
11926;BMP180;6022;48.768;18.608;2023-05-14T08:25:52;98595.81;;;12.62
11926;BMP180;6022;48.768;18.608;2023-05-14T08:28:20;98593.09;;;12.52
11926;BMP180;6022;48.768;18.608;2023-05-14T08:30:49;98597.34;;;12.52
11926;BMP180;6022;48.768;18.608;2023-05-14T08:33:18;98596.94;;;12.58
11926;BMP180;6022;48.768;18.608;2023-05-14T08:35:46;98594.88;;;12.63
11926;BMP180;6022;48.768;18.608;2023-05-14T08:38:14;98604.44;;;12.72
11926;BMP180;6022;48.768;18.608;2023-05-14T08:40:48;98607.88;;;12.71
11926;BMP180;6022;48.768;18.608;2023-05-14T08:43:26;98601.56;;;12.76
11926;BMP180;6022;48.768;18.608;2023-05-14T08:46:04;98598.72;;;12.68
11926;BMP180;6022;48.768;18.608;2023-05-14T08:48:33;98600.84;;;12.74
11926;BMP180;6022;48.768;18.608;2023-05-14T08:51:02;98599.22;;;12.85
11926;BMP180;6022;48.768;18.608;2023-05-14T08:53:32;98599.72;;;12.90
11926;BMP180;6022;48.768;18.608;2023-05-14T08:56:06;98594.63;;;12.90
11926;BMP180;6022;48.768;18.608;2023-05-14T08:58:34;98587.97;;;13.00
11926;BMP180;6022;48.768;18.608;2023-05-14T09:01:03;98588.03;;;13.11
11926;BMP180;6022;48.768;18.608;2023-05-14T09:03:31;98594.78;;;13.23
11926;BMP180;6022;48.768;18.608;2023-05-14T09:06:09;98591.84;;;13.29
11926;BMP180;6022;48.768;18.608;2023-05-14T09:08:40;98595.44;;;13.37
11926;BMP180;6022;48.768;18.608;2023-05-14T09:11:08;98580.66;;;13.53
11926;BMP180;6022;48.768;18.608;2023-05-14T09:13:38;98578.41;;;13.61
11926;BMP180;6022;48.768;18.608;2023-05-14T09:16:07;98573.88;;;13.64
11926;BMP180;6022;48.768;18.608;2023-05-14T09:18:35;98571.22;;;13.66
11926;BMP180;6022;48.768;18.608;2023-05-14T09:21:07;98557.31;;;13.70
11926;BMP180;6022;48.768;18.608;2023-05-14T09:23:41;98560.44;;;13.73
11926;BMP180;6022;48.768;18.608;2023-05-14T09:26:16;98563.72;;;13.86
11926;BMP180;6022;48.768;18.608;2023-05-14T09:28:46;98553.31;;;14.00
11926;BMP180;6022;48.768;18.608;2023-05-14T09:31:15;98552.19;;;14.15
11926;BMP180;6022;48.768;18.608;2023-05-14T09:33:52;98544.06;;;14.32
11926;BMP180;6022;48.768;18.608;2023-05-14T09:36:21;98541.50;;;14.42
11926;BMP180;6022;48.768;18.608;2023-05-14T09:38:49;98540.59;;;14.43
11926;BMP180;6022;48.768;18.608;2023-05-14T09:41:17;98530.50;;;14.53
11926;BMP180;6022;48.768;18.608;2023-05-14T09:43:46;98519.69;;;14.49
11926;BMP180;6022;48.768;18.608;2023-05-14T09:46:15;98523.63;;;14.53
11926;BMP180;6022;48.768;18.608;2023-05-14T09:48:45;98531.66;;;14.49
11926;BMP180;6022;48.768;18.608;2023-05-14T09:51:13;98510.19;;;14.51
11926;BMP180;6022;48.768;18.608;2023-05-14T09:53:43;98508.00;;;14.47
11926;BMP180;6022;48.768;18.608;2023-05-14T09:56:13;98504.47;;;14.59
11926;BMP180;6022;48.768;18.608;2023-05-14T09:58:41;98511.34;;;14.58
11926;BMP180;6022;48.768;18.608;2023-05-14T10:01:09;98500.16;;;14.59
11926;BMP180;6022;48.768;18.608;2023-05-14T10:03:39;98501.91;;;14.70
11926;BMP180;6022;48.768;18.608;2023-05-14T10:06:07;98502.22;;;14.76
11926;BMP180;6022;48.768;18.608;2023-05-14T10:08:42;98498.78;;;14.66
11926;BMP180;6022;48.768;18.608;2023-05-14T10:11:18;98512.69;;;14.73
11926;BMP180;6022;48.768;18.608;2023-05-14T10:14:08;98502.47;;;14.73
11926;BMP180;6022;48.768;18.608;2023-05-14T10:16:43;98505.47;;;14.67
11926;BMP180;6022;48.768;18.608;2023-05-14T10:19:16;98501.41;;;14.75
11926;BMP180;6022;48.768;18.608;2023-05-14T10:21:52;98500.13;;;14.81
11926;BMP180;6022;48.768;18.608;2023-05-14T10:24:23;98491.09;;;14.77
11926;BMP180;6022;48.768;18.608;2023-05-14T10:26:52;98491.75;;;14.90
11926;BMP180;6022;48.768;18.608;2023-05-14T10:29:33;98485.50;;;14.83
11926;BMP180;6022;48.768;18.608;2023-05-14T10:32:06;98479.91;;;14.78
11926;BMP180;6022;48.768;18.608;2023-05-14T10:34:37;98473.03;;;14.89
11926;BMP180;6022;48.768;18.608;2023-05-14T10:37:14;98466.63;;;14.95
11926;BMP180;6022;48.768;18.608;2023-05-14T10:42:40;98459.41;;;15.00
11926;BMP180;6022;48.768;18.608;2023-05-14T10:45:13;98456.56;;;15.13
11926;BMP180;6022;48.768;18.608;2023-05-14T10:47:44;98460.97;;;15.11
11926;BMP180;6022;48.768;18.608;2023-05-14T10:50:14;98461.78;;;15.12
11926;BMP180;6022;48.768;18.608;2023-05-14T10:52:50;98455.03;;;15.22
11926;BMP180;6022;48.768;18.608;2023-05-14T10:55:20;98457.31;;;15.25
11926;BMP180;6022;48.768;18.608;2023-05-14T10:57:52;98455.59;;;15.25
11926;BMP180;6022;48.768;18.608;2023-05-14T11:00:25;98454.47;;;15.18
11926;BMP180;6022;48.768;18.608;2023-05-14T11:02:55;98457.72;;;15.20
11926;BMP180;6022;48.768;18.608;2023-05-14T11:05:24;98444.88;;;15.31
11926;BMP180;6022;48.768;18.608;2023-05-14T11:07:57;98448.06;;;15.24
11926;BMP180;6022;48.768;18.608;2023-05-14T11:10:26;98448.63;;;15.27
11926;BMP180;6022;48.768;18.608;2023-05-14T11:13:00;98448.34;;;15.30
11926;BMP180;6022;48.768;18.608;2023-05-14T11:15:29;98429.78;;;15.28
11926;BMP180;6022;48.768;18.608;2023-05-14T11:17:57;98428.66;;;15.21
11926;BMP180;6022;48.768;18.608;2023-05-14T11:20:25;98422.91;;;15.29
11926;BMP180;6022;48.768;18.608;2023-05-14T11:22:53;98416.94;;;15.39
11926;BMP180;6022;48.768;18.608;2023-05-14T11:25:22;98414.09;;;15.42
11926;BMP180;6022;48.768;18.608;2023-05-14T11:27:53;98415.22;;;15.49
11926;BMP180;6022;48.768;18.608;2023-05-14T11:30:24;98405.31;;;15.55
11926;BMP180;6022;48.768;18.608;2023-05-14T11:32:55;98408.84;;;15.64
11926;BMP180;6022;48.768;18.608;2023-05-14T11:35:26;98414.63;;;15.66
11926;BMP180;6022;48.768;18.608;2023-05-14T11:37:54;98412.47;;;15.61
11926;BMP180;6022;48.768;18.608;2023-05-14T11:40:22;98419.19;;;15.62
11926;BMP180;6022;48.768;18.608;2023-05-14T11:42:53;98403.72;;;15.64
11926;BMP180;6022;48.768;18.608;2023-05-14T11:45:26;98408.69;;;15.56
11926;BMP180;6022;48.768;18.608;2023-05-14T11:47:57;98407.56;;;15.49
11926;BMP180;6022;48.768;18.608;2023-05-14T11:50:34;98407.03;;;15.55
11926;BMP180;6022;48.768;18.608;2023-05-14T11:53:05;98394.84;;;15.38
11926;BMP180;6022;48.768;18.608;2023-05-14T11:55:36;98390.69;;;15.37
11926;BMP180;6022;48.768;18.608;2023-05-14T11:58:04;98387.63;;;15.43
11926;BMP180;6022;48.768;18.608;2023-05-14T12:00:37;98380.38;;;15.48
11926;BMP180;6022;48.768;18.608;2023-05-14T12:03:06;98382.50;;;15.43
11926;BMP180;6022;48.768;18.608;2023-05-14T12:05:40;98387.56;;;15.34
11926;BMP180;6022;48.768;18.608;2023-05-14T12:08:29;98386.50;;;15.36
11926;BMP180;6022;48.768;18.608;2023-05-14T12:10:59;98377.91;;;15.37
11926;BMP180;6022;48.768;18.608;2023-05-14T12:13:31;98376.22;;;15.27
11926;BMP180;6022;48.768;18.608;2023-05-14T12:16:01;98367.06;;;15.24
11926;BMP180;6022;48.768;18.608;2023-05-14T12:18:40;98369.38;;;15.27
11926;BMP180;6022;48.768;18.608;2023-05-14T12:21:12;98369.56;;;15.35
11926;BMP180;6022;48.768;18.608;2023-05-14T12:23:43;98357.69;;;15.34
11926;BMP180;6022;48.768;18.608;2023-05-14T12:26:12;98352.06;;;15.40
11926;BMP180;6022;48.768;18.608;2023-05-14T12:28:46;98350.75;;;15.46
11926;BMP180;6022;48.768;18.608;2023-05-14T12:31:16;98349.94;;;15.45
11926;BMP180;6022;48.768;18.608;2023-05-14T12:33:46;98355.06;;;15.45
11926;BMP180;6022;48.768;18.608;2023-05-14T12:36:15;98343.22;;;15.44
11926;BMP180;6022;48.768;18.608;2023-05-14T12:38:49;98338.13;;;15.44
11926;BMP180;6022;48.768;18.608;2023-05-14T12:41:18;98327.72;;;15.36
11926;BMP180;6022;48.768;18.608;2023-05-14T12:43:49;98334.81;;;15.33
11926;BMP180;6022;48.768;18.608;2023-05-14T12:46:26;98344.25;;;15.32
11926;BMP180;6022;48.768;18.608;2023-05-14T12:48:56;98342.38;;;15.34
11926;BMP180;6022;48.768;18.608;2023-05-14T12:51:25;98335.13;;;15.39
11926;BMP180;6022;48.768;18.608;2023-05-14T12:53:54;98325.72;;;15.40
11926;BMP180;6022;48.768;18.608;2023-05-14T12:56:22;98330.19;;;15.47
11926;BMP180;6022;48.768;18.608;2023-05-14T12:58:55;98306.94;;;15.50
11926;BMP180;6022;48.768;18.608;2023-05-14T13:01:23;98314.31;;;15.53
11926;BMP180;6022;48.768;18.608;2023-05-14T13:03:52;98312.03;;;15.50
11926;BMP180;6022;48.768;18.608;2023-05-14T13:06:20;98320.38;;;15.52
11926;BMP180;6022;48.768;18.608;2023-05-14T13:08:48;98321.19;;;15.52
11926;BMP180;6022;48.768;18.608;2023-05-14T13:11:18;98321.59;;;15.48
11926;BMP180;6022;48.768;18.608;2023-05-14T13:13:46;98315.13;;;15.44
11926;BMP180;6022;48.768;18.608;2023-05-14T13:16:34;98314.69;;;15.39
11926;BMP180;6022;48.768;18.608;2023-05-14T13:19:04;98314.09;;;15.26
11926;BMP180;6022;48.768;18.608;2023-05-14T13:21:33;98308.06;;;15.27
11926;BMP180;6022;48.768;18.608;2023-05-14T13:24:06;98297.16;;;15.25
11926;BMP180;6022;48.768;18.608;2023-05-14T13:26:36;98288.53;;;15.26
11926;BMP180;6022;48.768;18.608;2023-05-14T13:29:07;98290.69;;;15.31
11926;BMP180;6022;48.768;18.608;2023-05-14T13:31:37;98288.28;;;15.29
11926;BMP180;6022;48.768;18.608;2023-05-14T13:34:06;98295.75;;;15.21
11926;BMP180;6022;48.768;18.608;2023-05-14T13:36:40;98285.53;;;15.21
11926;BMP180;6022;48.768;18.608;2023-05-14T13:39:10;98293.47;;;15.18
11926;BMP180;6022;48.768;18.608;2023-05-14T13:41:46;98281.63;;;15.17
11926;BMP180;6022;48.768;18.608;2023-05-14T13:44:20;98272.25;;;14.98
11926;BMP180;6022;48.768;18.608;2023-05-14T13:46:51;98283.81;;;15.02
11926;BMP180;6022;48.768;18.608;2023-05-14T13:49:23;98288.25;;;15.00
11926;BMP180;6022;48.768;18.608;2023-05-14T13:51:52;98284.22;;;15.07
11926;BMP180;6022;48.768;18.608;2023-05-14T13:54:24;98290.28;;;15.06
11926;BMP180;6022;48.768;18.608;2023-05-14T13:59:55;98281.09;;;14.94
11926;BMP180;6022;48.768;18.608;2023-05-14T14:02:23;98281.09;;;14.94
11926;BMP180;6022;48.768;18.608;2023-05-14T14:04:53;98283.38;;;14.97
11926;BMP180;6022;48.768;18.608;2023-05-14T14:07:24;98278.09;;;14.89
11926;BMP180;6022;48.768;18.608;2023-05-14T14:09:57;98278.22;;;14.87
11926;BMP180;6022;48.768;18.608;2023-05-14T14:12:35;98287.19;;;14.82
11926;BMP180;6022;48.768;18.608;2023-05-14T14:15:05;98268.22;;;14.75
11926;BMP180;6022;48.768;18.608;2023-05-14T14:17:33;98271.47;;;14.77
11926;BMP180;6022;48.768;18.608;2023-05-14T14:20:10;98268.03;;;14.67
11926;BMP180;6022;48.768;18.608;2023-05-14T14:22:43;98285.47;;;14.62
11926;BMP180;6022;48.768;18.608;2023-05-14T14:25:15;98277.81;;;14.62
11926;BMP180;6022;48.768;18.608;2023-05-14T14:27:46;98281.47;;;14.69
11926;BMP180;6022;48.768;18.608;2023-05-14T14:30:20;98272.09;;;14.70
11926;BMP180;6022;48.768;18.608;2023-05-14T14:32:57;98278.00;;;14.70
11926;BMP180;6022;48.768;18.608;2023-05-14T14:35:27;98277.44;;;14.67